sensor_id;sensor_type;location;lat;lon;timestamp;pressure;altitude;pressure_sealevel;temperature;humidity
75039;BME280;63609;49.992;14.512;2023-12-20T00:02:02;97700.06;;;2.74;64.27
75039;BME280;63609;49.992;14.512;2023-12-20T00:04:29;97714.34;;;2.83;64.21
75039;BME280;63609;49.992;14.512;2023-12-20T00:06:56;97698.63;;;2.57;64.44
75039;BME280;63609;49.992;14.512;2023-12-20T00:09:23;97695.56;;;2.87;64.18
75039;BME280;63609;49.992;14.512;2023-12-20T00:11:50;97714.63;;;2.67;64.62
75039;BME280;63609;49.992;14.512;2023-12-20T00:14:16;97717.22;;;2.80;64.73
75039;BME280;63609;49.992;14.512;2023-12-20T00:16:43;97718.94;;;2.68;65.24
75039;BME280;63609;49.992;14.512;2023-12-20T00:19:10;97716.91;;;2.95;64.34
75039;BME280;63609;49.992;14.512;2023-12-20T00:21:37;97712.13;;;2.53;65.67
75039;BME280;63609;49.992;14.512;2023-12-20T00:24:04;97692.72;;;2.54;65.72
75039;BME280;63609;49.992;14.512;2023-12-20T00:26:31;97686.00;;;2.50;65.73
75039;BME280;63609;49.992;14.512;2023-12-20T00:28:58;97700.69;;;2.65;65.92
75039;BME280;63609;49.992;14.512;2023-12-20T00:31:25;97698.66;;;2.45;66.08
75039;BME280;63609;49.992;14.512;2023-12-20T00:33:51;97703.94;;;2.45;66.31
75039;BME280;63609;49.992;14.512;2023-12-20T00:36:19;97710.31;;;2.66;66.25
75039;BME280;63609;49.992;14.512;2023-12-20T00:38:46;97704.88;;;2.80;65.78
75039;BME280;63609;49.992;14.512;2023-12-20T00:41:12;97703.38;;;2.52;66.57
75039;BME280;63609;49.992;14.512;2023-12-20T00:43:39;97709.94;;;2.47;67.25
75039;BME280;63609;49.992;14.512;2023-12-20T00:46:06;97708.81;;;2.38;67.30
75039;BME280;63609;49.992;14.512;2023-12-20T00:48:33;97695.53;;;2.40;67.49
75039;BME280;63609;49.992;14.512;2023-12-20T00:50:59;97688.81;;;2.35;67.86
75039;BME280;63609;49.992;14.512;2023-12-20T00:53:26;97689.53;;;2.38;68.05
75039;BME280;63609;49.992;14.512;2023-12-20T00:55:53;97691.22;;;2.62;67.86
75039;BME280;63609;49.992;14.512;2023-12-20T00:58:20;97687.06;;;2.47;68.60
75039;BME280;63609;49.992;14.512;2023-12-20T01:03:31;97672.88;;;2.37;69.98
75039;BME280;63609;49.992;14.512;2023-12-20T01:05:58;97668.78;;;2.33;70.34
75039;BME280;63609;49.992;14.512;2023-12-20T01:08:24;97667.56;;;2.50;69.94
75039;BME280;63609;49.992;14.512;2023-12-20T01:10:51;97664.94;;;2.50;70.69
75039;BME280;63609;49.992;14.512;2023-12-20T01:13:18;97680.06;;;2.35;70.09
75039;BME280;63609;49.992;14.512;2023-12-20T01:15:45;97676.25;;;2.39;70.92
75039;BME280;63609;49.992;14.512;2023-12-20T01:18:13;97664.16;;;2.24;71.22
75039;BME280;63609;49.992;14.512;2023-12-20T01:20:40;97651.38;;;2.43;71.42
75039;BME280;63609;49.992;14.512;2023-12-20T01:23:07;97655.41;;;2.36;71.76
75039;BME280;63609;49.992;14.512;2023-12-20T01:25:33;97661.91;;;2.43;71.50
75039;BME280;63609;49.992;14.512;2023-12-20T01:28:00;97641.56;;;2.32;72.01
75039;BME280;63609;49.992;14.512;2023-12-20T01:30:27;97650.75;;;2.40;72.21
75039;BME280;63609;49.992;14.512;2023-12-20T01:32:53;97643.53;;;2.18;73.05
75039;BME280;63609;49.992;14.512;2023-12-20T01:35:21;97637.75;;;2.13;73.22
75039;BME280;63609;49.992;14.512;2023-12-20T01:37:47;97633.25;;;2.39;72.93
75039;BME280;63609;49.992;14.512;2023-12-20T01:40:14;97623.44;;;2.41;72.61
75039;BME280;63609;49.992;14.512;2023-12-20T01:42:41;97625.47;;;2.37;72.80
75039;BME280;63609;49.992;14.512;2023-12-20T01:45:08;97623.91;;;2.22;73.42
75039;BME280;63609;49.992;14.512;2023-12-20T01:47:35;97614.09;;;2.36;72.93
75039;BME280;63609;49.992;14.512;2023-12-20T01:50:03;97607.72;;;2.63;72.51
75039;BME280;63609;49.992;14.512;2023-12-20T01:52:31;97602.91;;;2.57;72.30
75039;BME280;63609;49.992;14.512;2023-12-20T01:55:01;97599.13;;;2.37;74.12
75039;BME280;63609;49.992;14.512;2023-12-20T01:57:30;97602.91;;;1.96;74.72
75039;BME280;63609;49.992;14.512;2023-12-20T01:59:57;97603.59;;;1.87;75.32
75039;BME280;63609;49.992;14.512;2023-12-20T02:02:26;97590.31;;;1.89;76.04
75039;BME280;63609;49.992;14.512;2023-12-20T02:04:53;97591.41;;;2.10;75.36
75039;BME280;63609;49.992;14.512;2023-12-20T02:07:21;97587.00;;;1.98;75.40
75039;BME280;63609;49.992;14.512;2023-12-20T02:09:49;97584.19;;;2.25;75.26
75039;BME280;63609;49.992;14.512;2023-12-20T02:12:16;97589.69;;;2.22;75.30
75039;BME280;63609;49.992;14.512;2023-12-20T02:14:43;97592.44;;;2.20;75.72
75039;BME280;63609;49.992;14.512;2023-12-20T02:17:10;97587.66;;;2.25;75.69
75039;BME280;63609;49.992;14.512;2023-12-20T02:19:36;97593.00;;;2.13;75.79
75039;BME280;63609;49.992;14.512;2023-12-20T02:22:08;97590.69;;;2.08;76.35
75039;BME280;63609;49.992;14.512;2023-12-20T02:24:35;97594.22;;;2.20;75.86
75039;BME280;63609;49.992;14.512;2023-12-20T02:27:01;97605.66;;;2.08;76.55
75039;BME280;63609;49.992;14.512;2023-12-20T02:29:29;97587.84;;;2.11;76.55
75039;BME280;63609;49.992;14.512;2023-12-20T02:31:56;97593.41;;;2.43;76.06
75039;BME280;63609;49.992;14.512;2023-12-20T02:34:22;97597.81;;;2.19;76.29
75039;BME280;63609;49.992;14.512;2023-12-20T02:36:49;97590.16;;;2.40;75.85
75039;BME280;63609;49.992;14.512;2023-12-20T02:39:16;97592.03;;;2.14;76.25
75039;BME280;63609;49.992;14.512;2023-12-20T02:41:43;97596.75;;;2.21;76.24
75039;BME280;63609;49.992;14.512;2023-12-20T02:44:09;97595.97;;;2.08;76.39
75039;BME280;63609;49.992;14.512;2023-12-20T02:46:36;97594.81;;;1.99;76.73
75039;BME280;63609;49.992;14.512;2023-12-20T02:49:03;97597.25;;;2.26;76.77
75039;BME280;63609;49.992;14.512;2023-12-20T02:51:30;97584.47;;;2.09;76.99
75039;BME280;63609;49.992;14.512;2023-12-20T02:53:56;97582.47;;;2.00;77.10
75039;BME280;63609;49.992;14.512;2023-12-20T02:56:23;97580.88;;;2.10;76.79
75039;BME280;63609;49.992;14.512;2023-12-20T02:58:50;97582.69;;;1.97;77.76
75039;BME280;63609;49.992;14.512;2023-12-20T03:01:16;97588.50;;;2.02;77.46
75039;BME280;63609;49.992;14.512;2023-12-20T03:03:43;97586.63;;;1.91;77.85
75039;BME280;63609;49.992;14.512;2023-12-20T03:06:10;97584.31;;;2.23;76.81
75039;BME280;63609;49.992;14.512;2023-12-20T03:08:37;97579.53;;;2.04;78.63
75039;BME280;63609;49.992;14.512;2023-12-20T03:11:05;97583.25;;;2.02;78.08
75039;BME280;63609;49.992;14.512;2023-12-20T03:13:31;97570.28;;;1.99;77.72
75039;BME280;63609;49.992;14.512;2023-12-20T03:15:58;97583.06;;;2.16;77.82
75039;BME280;63609;49.992;14.512;2023-12-20T03:18:25;97583.47;;;2.23;77.02
75039;BME280;63609;49.992;14.512;2023-12-20T03:20:54;97583.41;;;2.12;77.69
75039;BME280;63609;49.992;14.512;2023-12-20T03:23:21;97578.97;;;2.12;77.93
75039;BME280;63609;49.992;14.512;2023-12-20T03:25:47;97570.94;;;1.90;78.27
75039;BME280;63609;49.992;14.512;2023-12-20T03:28:15;97570.81;;;2.04;78.36
75039;BME280;63609;49.992;14.512;2023-12-20T03:30:42;97575.97;;;2.05;78.32
75039;BME280;63609;49.992;14.512;2023-12-20T03:33:09;97578.19;;;2.23;77.71
75039;BME280;63609;49.992;14.512;2023-12-20T03:35:36;97576.59;;;1.96;78.25
75039;BME280;63609;49.992;14.512;2023-12-20T03:38:03;97573.31;;;2.05;77.86
75039;BME280;63609;49.992;14.512;2023-12-20T03:40:30;97577.88;;;2.03;78.48
75039;BME280;63609;49.992;14.512;2023-12-20T03:42:57;97579.81;;;2.13;77.95
75039;BME280;63609;49.992;14.512;2023-12-20T03:45:24;97574.28;;;1.92;78.06
75039;BME280;63609;49.992;14.512;2023-12-20T03:47:51;97574.88;;;2.32;76.74
75039;BME280;63609;49.992;14.512;2023-12-20T03:50:25;97574.84;;;2.21;77.64
75039;BME280;63609;49.992;14.512;2023-12-20T03:52:52;97577.44;;;2.33;77.57
75039;BME280;63609;49.992;14.512;2023-12-20T03:55:19;97563.97;;;2.25;77.67
75039;BME280;63609;49.992;14.512;2023-12-20T03:57:46;97564.91;;;2.48;76.63
75039;BME280;63609;49.992;14.512;2023-12-20T04:00:13;97569.00;;;2.04;77.91
75039;BME280;63609;49.992;14.512;2023-12-20T04:02:41;97570.91;;;2.02;78.11
75039;BME280;63609;49.992;14.512;2023-12-20T04:05:09;97580.56;;;2.15;77.87
75039;BME280;63609;49.992;14.512;2023-12-20T04:07:36;97575.03;;;1.94;78.29
75039;BME280;63609;49.992;14.512;2023-12-20T04:10:04;97581.13;;;1.94;78.72
75039;BME280;63609;49.992;14.512;2023-12-20T04:12:31;97579.16;;;2.22;77.33
75039;BME280;63609;49.992;14.512;2023-12-20T04:14:58;97571.75;;;2.03;77.69
75039;BME280;63609;49.992;14.512;2023-12-20T04:17:25;97579.22;;;1.96;78.63
75039;BME280;63609;49.992;14.512;2023-12-20T04:19:51;97576.94;;;1.92;78.05
75039;BME280;63609;49.992;14.512;2023-12-20T04:22:18;97578.31;;;1.85;79.10
75039;BME280;63609;49.992;14.512;2023-12-20T04:24:46;97570.97;;;1.77;78.44
75039;BME280;63609;49.992;14.512;2023-12-20T04:27:13;97568.53;;;1.87;77.96
75039;BME280;63609;49.992;14.512;2023-12-20T04:29:39;97581.50;;;1.77;78.77
75039;BME280;63609;49.992;14.512;2023-12-20T04:32:06;97566.00;;;1.85;78.10
75039;BME280;63609;49.992;14.512;2023-12-20T04:34:33;97575.28;;;1.65;78.89
75039;BME280;63609;49.992;14.512;2023-12-20T04:36:59;97575.28;;;1.78;78.46
75039;BME280;63609;49.992;14.512;2023-12-20T04:39:28;97571.63;;;1.68;79.21
75039;BME280;63609;49.992;14.512;2023-12-20T04:41:55;97579.19;;;1.72;79.29
75039;BME280;63609;49.992;14.512;2023-12-20T04:44:22;97574.56;;;1.76;79.34
75039;BME280;63609;49.992;14.512;2023-12-20T04:46:49;97584.69;;;1.69;78.67
75039;BME280;63609;49.992;14.512;2023-12-20T04:49:15;97576.69;;;1.58;79.41
75039;BME280;63609;49.992;14.512;2023-12-20T04:51:42;97582.88;;;1.57;79.91
75039;BME280;63609;49.992;14.512;2023-12-20T04:54:09;97579.44;;;1.93;77.98
75039;BME280;63609;49.992;14.512;2023-12-20T04:56:37;97579.50;;;1.81;78.76
75039;BME280;63609;49.992;14.512;2023-12-20T04:59:03;97588.13;;;1.83;78.77
75039;BME280;63609;49.992;14.512;2023-12-20T05:01:30;97585.72;;;1.80;78.88
75039;BME280;63609;49.992;14.512;2023-12-20T05:03:57;97585.31;;;1.73;78.75
75039;BME280;63609;49.992;14.512;2023-12-20T05:06:24;97587.63;;;1.52;79.35
75039;BME280;63609;49.992;14.512;2023-12-20T05:08:51;97578.66;;;1.67;79.32
75039;BME280;63609;49.992;14.512;2023-12-20T05:11:18;97573.31;;;1.69;78.58
75039;BME280;63609;49.992;14.512;2023-12-20T05:13:44;97569.09;;;1.54;79.58
75039;BME280;63609;49.992;14.512;2023-12-20T05:16:16;97586.56;;;1.55;79.45
75039;BME280;63609;49.992;14.512;2023-12-20T05:18:47;97587.50;;;1.79;78.71
75039;BME280;63609;49.992;14.512;2023-12-20T05:21:15;97593.91;;;1.88;78.18
75039;BME280;63609;49.992;14.512;2023-12-20T05:23:41;97594.03;;;1.61;78.33
75039;BME280;63609;49.992;14.512;2023-12-20T05:26:08;97593.44;;;1.94;77.93
75039;BME280;63609;49.992;14.512;2023-12-20T05:28:35;97587.66;;;2.01;77.15
75039;BME280;63609;49.992;14.512;2023-12-20T05:31:02;97597.25;;;1.90;76.90
75039;BME280;63609;49.992;14.512;2023-12-20T05:33:29;97596.13;;;1.81;78.29
75039;BME280;63609;49.992;14.512;2023-12-20T05:35:56;97605.28;;;1.76;78.22
75039;BME280;63609;49.992;14.512;2023-12-20T05:38:22;97599.69;;;1.67;78.33
75039;BME280;63609;49.992;14.512;2023-12-20T05:40:49;97600.44;;;1.82;78.32
75039;BME280;63609;49.992;14.512;2023-12-20T05:43:16;97605.63;;;1.71;77.75
75039;BME280;63609;49.992;14.512;2023-12-20T05:45:43;97596.59;;;1.99;76.92
75039;BME280;63609;49.992;14.512;2023-12-20T05:48:10;97601.78;;;2.24;76.38
75039;BME280;63609;49.992;14.512;2023-12-20T05:50:37;97607.38;;;1.83;77.11
75039;BME280;63609;49.992;14.512;2023-12-20T05:53:03;97607.09;;;1.62;78.40
75039;BME280;63609;49.992;14.512;2023-12-20T05:55:30;97606.94;;;1.89;77.51
75039;BME280;63609;49.992;14.512;2023-12-20T05:57:57;97601.66;;;2.02;76.98
75039;BME280;63609;49.992;14.512;2023-12-20T06:00:24;97602.34;;;1.80;77.55
75039;BME280;63609;49.992;14.512;2023-12-20T06:02:52;97602.34;;;2.17;76.21
75039;BME280;63609;49.992;14.512;2023-12-20T06:05:19;97607.78;;;1.90;77.23
75039;BME280;63609;49.992;14.512;2023-12-20T06:07:46;97614.34;;;1.59;78.07
75039;BME280;63609;49.992;14.512;2023-12-20T06:10:15;97619.59;;;1.84;77.51
75039;BME280;63609;49.992;14.512;2023-12-20T06:12:43;97609.13;;;2.08;76.70
75039;BME280;63609;49.992;14.512;2023-12-20T06:15:10;97602.47;;;2.15;75.72
75039;BME280;63609;49.992;14.512;2023-12-20T06:17:37;97609.75;;;2.12;76.16
75039;BME280;63609;49.992;14.512;2023-12-20T06:20:04;97617.75;;;2.10;75.83
75039;BME280;63609;49.992;14.512;2023-12-20T06:22:35;97617.34;;;2.03;75.77
75039;BME280;63609;49.992;14.512;2023-12-20T06:25:03;97620.94;;;1.90;76.69
75039;BME280;63609;49.992;14.512;2023-12-20T06:27:30;97619.72;;;1.70;77.50
75039;BME280;63609;49.992;14.512;2023-12-20T06:29:58;97619.09;;;1.54;77.88
75039;BME280;63609;49.992;14.512;2023-12-20T06:32:26;97625.41;;;1.51;77.85
75039;BME280;63609;49.992;14.512;2023-12-20T06:34:52;97622.88;;;1.75;76.56
75039;BME280;63609;49.992;14.512;2023-12-20T06:37:20;97622.34;;;1.70;76.69
75039;BME280;63609;49.992;14.512;2023-12-20T06:39:47;97620.22;;;1.88;76.48
75039;BME280;63609;49.992;14.512;2023-12-20T06:42:14;97629.91;;;1.62;77.69
75039;BME280;63609;49.992;14.512;2023-12-20T06:44:40;97634.97;;;1.65;77.56
75039;BME280;63609;49.992;14.512;2023-12-20T06:47:09;97641.50;;;1.85;76.88
75039;BME280;63609;49.992;14.512;2023-12-20T06:49:36;97648.00;;;1.92;76.51
75039;BME280;63609;49.992;14.512;2023-12-20T06:52:03;97641.28;;;1.62;77.67
75039;BME280;63609;49.992;14.512;2023-12-20T06:54:30;97650.19;;;1.34;78.22
75039;BME280;63609;49.992;14.512;2023-12-20T06:56:57;97650.75;;;1.52;78.96
75039;BME280;63609;49.992;14.512;2023-12-20T06:59:25;97657.34;;;1.32;77.85
75039;BME280;63609;49.992;14.512;2023-12-20T07:01:52;97670.47;;;1.20;79.60
75039;BME280;63609;49.992;14.512;2023-12-20T07:04:19;97666.13;;;1.46;78.12
75039;BME280;63609;49.992;14.512;2023-12-20T07:06:48;97664.06;;;1.24;79.13
75039;BME280;63609;49.992;14.512;2023-12-20T07:09:18;97662.78;;;1.43;79.14
75039;BME280;63609;49.992;14.512;2023-12-20T07:11:45;97682.97;;;1.43;79.58
75039;BME280;63609;49.992;14.512;2023-12-20T07:14:13;97679.88;;;1.36;79.06
75039;BME280;63609;49.992;14.512;2023-12-20T07:16:39;97681.44;;;1.26;79.14
75039;BME280;63609;49.992;14.512;2023-12-20T07:19:07;97686.03;;;1.50;78.41
75039;BME280;63609;49.992;14.512;2023-12-20T07:21:34;97682.84;;;1.57;78.12
75039;BME280;63609;49.992;14.512;2023-12-20T07:24:01;97685.06;;;1.63;78.05
75039;BME280;63609;49.992;14.512;2023-12-20T07:26:28;97688.66;;;1.62;78.02
75039;BME280;63609;49.992;14.512;2023-12-20T07:28:55;97688.22;;;1.56;78.45
75039;BME280;63609;49.992;14.512;2023-12-20T07:31:22;97698.22;;;1.11;79.66
75039;BME280;63609;49.992;14.512;2023-12-20T07:33:51;97698.22;;;1.51;78.69
75039;BME280;63609;49.992;14.512;2023-12-20T07:36:19;97703.19;;;1.68;78.16
75039;BME280;63609;49.992;14.512;2023-12-20T07:38:48;97697.59;;;1.60;78.05
75039;BME280;63609;49.992;14.512;2023-12-20T07:41:14;97704.28;;;1.38;79.04
75039;BME280;63609;49.992;14.512;2023-12-20T07:43:43;97705.38;;;1.87;77.82
75039;BME280;63609;49.992;14.512;2023-12-20T07:46:09;97713.50;;;1.31;79.16
75039;BME280;63609;49.992;14.512;2023-12-20T07:48:37;97714.00;;;1.63;78.18
75039;BME280;63609;49.992;14.512;2023-12-20T07:51:04;97710.75;;;1.20;79.27
75039;BME280;63609;49.992;14.512;2023-12-20T07:53:33;97714.13;;;1.74;78.08
75039;BME280;63609;49.992;14.512;2023-12-20T07:56:01;97723.47;;;1.40;78.28
75039;BME280;63609;49.992;14.512;2023-12-20T07:58:28;97722.84;;;1.50;78.78
75039;BME280;63609;49.992;14.512;2023-12-20T08:01:11;97725.81;;;1.70;77.64
75039;BME280;63609;49.992;14.512;2023-12-20T08:03:38;97728.94;;;1.10;79.81
75039;BME280;63609;49.992;14.512;2023-12-20T08:06:06;97711.19;;;1.27;79.92
75039;BME280;63609;49.992;14.512;2023-12-20T08:08:33;97713.91;;;1.39;79.24
75039;BME280;63609;49.992;14.512;2023-12-20T08:11:00;97712.13;;;1.26;79.29
75039;BME280;63609;49.992;14.512;2023-12-20T08:13:27;97716.63;;;1.51;77.64
75039;BME280;63609;49.992;14.512;2023-12-20T08:15:54;97712.53;;;1.59;77.94
75039;BME280;63609;49.992;14.512;2023-12-20T08:18:22;97721.06;;;1.50;78.76
75039;BME280;63609;49.992;14.512;2023-12-20T08:20:50;97708.72;;;1.38;78.43
75039;BME280;63609;49.992;14.512;2023-12-20T08:23:19;97713.59;;;1.44;78.69
75039;BME280;63609;49.992;14.512;2023-12-20T08:25:50;97714.06;;;1.36;78.89
75039;BME280;63609;49.992;14.512;2023-12-20T08:28:18;97710.38;;;1.39;78.27
75039;BME280;63609;49.992;14.512;2023-12-20T08:30:45;97723.16;;;1.18;78.64
75039;BME280;63609;49.992;14.512;2023-12-20T08:33:12;97720.31;;;1.48;78.22
75039;BME280;63609;49.992;14.512;2023-12-20T08:35:40;97724.66;;;1.35;78.49
75039;BME280;63609;49.992;14.512;2023-12-20T08:38:07;97727.38;;;1.48;78.09
75039;BME280;63609;49.992;14.512;2023-12-20T08:40:34;97744.78;;;1.36;78.69
75039;BME280;63609;49.992;14.512;2023-12-20T08:43:02;97743.16;;;1.21;79.09
75039;BME280;63609;49.992;14.512;2023-12-20T08:45:29;97744.84;;;1.61;77.48
75039;BME280;63609;49.992;14.512;2023-12-20T08:47:56;97736.94;;;1.49;77.86
75039;BME280;63609;49.992;14.512;2023-12-20T08:50:27;97739.41;;;1.77;77.18
75039;BME280;63609;49.992;14.512;2023-12-20T08:52:54;97742.56;;;1.69;76.81
75039;BME280;63609;49.992;14.512;2023-12-20T08:55:21;97742.84;;;1.52;77.71
75039;BME280;63609;49.992;14.512;2023-12-20T08:57:48;97737.69;;;1.63;77.61
75039;BME280;63609;49.992;14.512;2023-12-20T09:00:16;97743.38;;;1.57;77.47
75039;BME280;63609;49.992;14.512;2023-12-20T09:02:44;97734.22;;;1.50;77.14
75039;BME280;63609;49.992;14.512;2023-12-20T09:05:11;97730.66;;;1.77;76.79
75039;BME280;63609;49.992;14.512;2023-12-20T09:07:38;97732.56;;;1.87;76.51
75039;BME280;63609;49.992;14.512;2023-12-20T09:10:05;97735.19;;;1.74;77.01
75039;BME280;63609;49.992;14.512;2023-12-20T09:12:32;97738.97;;;1.70;76.42
75039;BME280;63609;49.992;14.512;2023-12-20T09:14:59;97740.88;;;1.81;76.04
75039;BME280;63609;49.992;14.512;2023-12-20T09:17:29;97736.88;;;2.01;75.96
75039;BME280;63609;49.992;14.512;2023-12-20T09:19:56;97733.41;;;2.00;75.51
75039;BME280;63609;49.992;14.512;2023-12-20T09:22:23;97739.69;;;1.98;76.07
75039;BME280;63609;49.992;14.512;2023-12-20T09:24:51;97726.22;;;2.15;75.46
75039;BME280;63609;49.992;14.512;2023-12-20T09:27:18;97734.16;;;2.02;75.11
75039;BME280;63609;49.992;14.512;2023-12-20T09:29:44;97733.41;;;2.00;76.20
75039;BME280;63609;49.992;14.512;2023-12-20T09:32:12;97737.91;;;1.98;75.64
75039;BME280;63609;49.992;14.512;2023-12-20T09:34:39;97732.34;;;2.03;75.46
75039;BME280;63609;49.992;14.512;2023-12-20T09:37:07;97733.41;;;1.88;76.19
75039;BME280;63609;49.992;14.512;2023-12-20T09:39:34;97739.13;;;2.44;74.67
75039;BME280;63609;49.992;14.512;2023-12-20T09:42:05;97732.44;;;1.89;75.11
75039;BME280;63609;49.992;14.512;2023-12-20T09:44:33;97726.81;;;2.44;74.17
75039;BME280;63609;49.992;14.512;2023-12-20T09:47:04;97736.94;;;2.38;74.60
75039;BME280;63609;49.992;14.512;2023-12-20T09:49:32;97748.94;;;2.42;74.87
75039;BME280;63609;49.992;14.512;2023-12-20T09:52:00;97743.47;;;2.32;75.18
75039;BME280;63609;49.992;14.512;2023-12-20T09:54:28;97728.41;;;2.34;74.81
75039;BME280;63609;49.992;14.512;2023-12-20T09:56:56;97743.63;;;2.54;74.50
75039;BME280;63609;49.992;14.512;2023-12-20T09:59:23;97733.09;;;2.05;75.56
75039;BME280;63609;49.992;14.512;2023-12-20T10:01:49;97738.19;;;2.32;75.15
75039;BME280;63609;49.992;14.512;2023-12-20T10:04:21;97739.69;;;2.36;74.62
75039;BME280;63609;49.992;14.512;2023-12-20T10:06:56;97735.91;;;2.15;75.17
75039;BME280;63609;49.992;14.512;2023-12-20T10:09:24;97734.72;;;2.44;74.93
75039;BME280;63609;49.992;14.512;2023-12-20T10:11:54;97736.84;;;2.76;74.54
75039;BME280;63609;49.992;14.512;2023-12-20T10:14:22;97728.09;;;2.39;75.13
75039;BME280;63609;49.992;14.512;2023-12-20T10:16:50;97724.97;;;2.08;75.42
75039;BME280;63609;49.992;14.512;2023-12-20T10:19:17;97715.44;;;2.31;75.72
75039;BME280;63609;49.992;14.512;2023-12-20T10:21:47;97712.13;;;2.53;75.26
75039;BME280;63609;49.992;14.512;2023-12-20T10:24:17;97713.03;;;2.64;74.59
75039;BME280;63609;49.992;14.512;2023-12-20T10:26:45;97712.81;;;2.31;75.18
75039;BME280;63609;49.992;14.512;2023-12-20T10:29:11;97718.00;;;2.69;74.81
75039;BME280;63609;49.992;14.512;2023-12-20T10:31:38;97712.06;;;2.29;75.48
75039;BME280;63609;49.992;14.512;2023-12-20T10:34:05;97721.53;;;2.44;75.25
75039;BME280;63609;49.992;14.512;2023-12-20T10:36:33;97716.91;;;2.48;74.48
75039;BME280;63609;49.992;14.512;2023-12-20T10:39:01;97712.19;;;2.64;74.11
75039;BME280;63609;49.992;14.512;2023-12-20T10:41:31;97710.03;;;2.82;74.10
75039;BME280;63609;49.992;14.512;2023-12-20T10:44:00;97710.72;;;2.23;74.14
75039;BME280;63609;49.992;14.512;2023-12-20T10:46:27;97715.81;;;2.50;73.93
75039;BME280;63609;49.992;14.512;2023-12-20T10:48:59;97702.47;;;2.77;73.54
75039;BME280;63609;49.992;14.512;2023-12-20T10:51:28;97706.09;;;2.63;72.96
75039;BME280;63609;49.992;14.512;2023-12-20T10:53:56;97701.72;;;2.75;72.70
75039;BME280;63609;49.992;14.512;2023-12-20T10:56:23;97687.63;;;2.63;73.04
75039;BME280;63609;49.992;14.512;2023-12-20T10:58:50;97689.88;;;2.57;73.92
75039;BME280;63609;49.992;14.512;2023-12-20T11:01:18;97688.41;;;2.53;74.06
75039;BME280;63609;49.992;14.512;2023-12-20T11:03:51;97675.97;;;2.55;73.37
75039;BME280;63609;49.992;14.512;2023-12-20T11:06:46;97682.78;;;2.70;72.64
75039;BME280;63609;49.992;14.512;2023-12-20T11:14:50;97686.59;;;2.66;72.86
75039;BME280;63609;49.992;14.512;2023-12-20T11:17:17;97681.84;;;2.58;73.72
75039;BME280;63609;49.992;14.512;2023-12-20T11:20:05;97673.50;;;2.88;72.59
75039;BME280;63609;49.992;14.512;2023-12-20T11:22:34;97665.00;;;3.20;71.61
75039;BME280;63609;49.992;14.512;2023-12-20T11:25:10;97654.06;;;3.02;71.29
75039;BME280;63609;49.992;14.512;2023-12-20T11:27:42;97663.56;;;3.16;70.99
75039;BME280;63609;49.992;14.512;2023-12-20T11:30:15;97652.31;;;3.25;70.74
75039;BME280;63609;49.992;14.512;2023-12-20T11:32:45;97662.47;;;3.18;70.84
75039;BME280;63609;49.992;14.512;2023-12-20T11:35:18;97653.59;;;3.08;71.81
75039;BME280;63609;49.992;14.512;2023-12-20T11:37:46;97653.75;;;3.29;71.47
75039;BME280;63609;49.992;14.512;2023-12-20T11:40:16;97649.84;;;2.99;71.27
75039;BME280;63609;49.992;14.512;2023-12-20T11:42:49;97652.84;;;2.71;70.23
75039;BME280;63609;49.992;14.512;2023-12-20T11:45:18;97657.25;;;2.47;71.57
75039;BME280;63609;49.992;14.512;2023-12-20T11:47:49;97650.44;;;2.31;72.54
75039;BME280;63609;49.992;14.512;2023-12-20T11:50:18;97640.88;;;3.02;71.01
75039;BME280;63609;49.992;14.512;2023-12-20T11:52:45;97655.28;;;2.61;72.53
75039;BME280;63609;49.992;14.512;2023-12-20T11:55:12;97655.41;;;2.84;72.79
75039;BME280;63609;49.992;14.512;2023-12-20T11:57:39;97643.06;;;3.19;71.95
75039;BME280;63609;49.992;14.512;2023-12-20T12:00:08;97644.25;;;3.15;73.10
75039;BME280;63609;49.992;14.512;2023-12-20T12:02:38;97652.50;;;3.11;73.24
75039;BME280;63609;49.992;14.512;2023-12-20T12:05:05;97650.53;;;2.30;74.57
75039;BME280;63609;49.992;14.512;2023-12-20T12:07:34;97639.38;;;2.39;72.36
75039;BME280;63609;49.992;14.512;2023-12-20T12:10:01;97635.47;;;2.32;73.40
75039;BME280;63609;49.992;14.512;2023-12-20T12:12:30;97643.97;;;2.12;74.12
75039;BME280;63609;49.992;14.512;2023-12-20T12:15:00;97638.47;;;2.51;73.40
75039;BME280;63609;49.992;14.512;2023-12-20T12:17:26;97634.53;;;2.57;71.94
75039;BME280;63609;49.992;14.512;2023-12-20T12:20:05;97628.78;;;3.11;71.47
75039;BME280;63609;49.992;14.512;2023-12-20T12:22:32;97621.81;;;2.98;70.55
75039;BME280;63609;49.992;14.512;2023-12-20T12:25:09;97621.25;;;3.17;69.81
75039;BME280;63609;49.992;14.512;2023-12-20T12:27:37;97624.97;;;2.91;68.19
75039;BME280;63609;49.992;14.512;2023-12-20T12:30:06;97624.84;;;3.16;68.58
75039;BME280;63609;49.992;14.512;2023-12-20T12:32:36;97625.25;;;3.45;67.46
75039;BME280;63609;49.992;14.512;2023-12-20T12:35:04;97617.94;;;3.60;66.37
75039;BME280;63609;49.992;14.512;2023-12-20T12:37:37;97607.94;;;3.30;66.25
75039;BME280;63609;49.992;14.512;2023-12-20T12:40:16;97615.19;;;3.50;65.18
75039;BME280;63609;49.992;14.512;2023-12-20T12:42:44;97604.03;;;3.80;65.18
75039;BME280;63609;49.992;14.512;2023-12-20T12:45:12;97604.03;;;3.47;64.42
75039;BME280;63609;49.992;14.512;2023-12-20T12:47:39;97596.31;;;3.21;65.14
75039;BME280;63609;49.992;14.512;2023-12-20T12:50:07;97594.78;;;3.41;64.85
75039;BME280;63609;49.992;14.512;2023-12-20T12:52:35;97593.06;;;3.18;65.11
75039;BME280;63609;49.992;14.512;2023-12-20T12:55:02;97587.97;;;3.39;64.54
75039;BME280;63609;49.992;14.512;2023-12-20T12:57:32;97584.97;;;3.43;62.79
75039;BME280;63609;49.992;14.512;2023-12-20T12:59:59;97591.84;;;4.02;62.60
75039;BME280;63609;49.992;14.512;2023-12-20T13:02:26;97585.94;;;3.87;60.79
75039;BME280;63609;49.992;14.512;2023-12-20T13:04:52;97588.19;;;3.80;61.49
75039;BME280;63609;49.992;14.512;2023-12-20T13:07:19;97592.63;;;4.24;60.93
75039;BME280;63609;49.992;14.512;2023-12-20T13:09:46;97593.75;;;4.00;61.17
75039;BME280;63609;49.992;14.512;2023-12-20T13:12:13;97597.81;;;3.70;62.55